Time;durP1;ratioP1;P1;durP2;ratioP2;P2;SDS_P1;SDS_P2;PMS_P1;PMS_P2;Temp;Humidity;BMP_temperature;BMP_pressure;BME280_temperature;BME280_humidity;BME280_pressure;Samples;Min_cycle;Max_cycle;Signal;HPM_P1;HPM_P2
2022/10/29 00:01:58;;;;;;;11.50;5.43;;;;;;;;;;5012629;28;20088;-64
2022/10/29 00:04:24;;;;;;;12.25;5.60;;;;;;;;;;5013443;28;20056;-65
2022/10/29 00:06:51;;;;;;;12.63;6.18;;;;;;;;;;5012372;28;20136;-64
2022/10/29 00:09:18;;;;;;;11.02;5.63;;;;;;;;;;5011892;28;20402;-64
2022/10/29 00:11:44;;;;;;;18.35;6.25;;;;;;;;;;5013217;28;20072;-65
2022/10/29 00:14:11;;;;;;;11.05;5.60;;;;;;;;;;5012984;28;20100;-64
2022/10/29 00:16:38;;;;;;;11.43;5.00;;;;;;;;;;5013268;28;20042;-64
2022/10/29 00:19:06;;;;;;;12.48;5.22;;;;;;;;;;5022905;28;20096;-64
2022/10/29 00:21:33;;;;;;;12.57;6.05;;;;;;;;;;5032344;28;20053;-64
2022/10/29 00:24:00;;;;;;;9.77;5.25;;;;;;;;;;5021090;28;20081;-65
2022/10/29 00:26:28;;;;;;;13.52;6.50;;;;;;;;;;5012613;28;20084;-65
2022/10/29 00:28:55;;;;;;;10.05;4.90;;;;;;;;;;5012543;28;20096;-65
2022/10/29 00:31:25;;;;;;;11.18;5.03;;;;;;;;;;5012340;28;20567;-65
2022/10/29 00:33:53;;;;;;;10.77;4.90;;;;;;;;;;5023382;28;20056;-64
2022/10/29 00:36:22;;;;;;;10.52;5.30;;;;;;;;;;5032503;28;20092;-65
2022/10/29 00:38:49;;;;;;;13.13;6.05;;;;;;;;;;5031971;28;20125;-65
2022/10/29 00:41:19;;;;;;;9.52;4.53;;;;;;;;;;5032653;28;20500;-64
2022/10/29 00:43:49;;;;;;;9.80;5.30;;;;;;;;;;5032675;28;20049;-64
2022/10/29 00:46:30;;;;;;;11.10;5.60;;;;;;;;;;5032478;28;20064;-64
2022/10/29 00:48:57;;;;;;;8.02;4.82;;;;;;;;;;5031977;28;20045;-64
2022/10/29 00:51:23;;;;;;;12.77;5.38;;;;;;;;;;5051890;28;20049;-64
2022/10/29 00:53:53;;;;;;;14.80;5.68;;;;;;;;;;5025243;28;20049;-65
2022/10/29 00:56:20;;;;;;;13.85;5.22;;;;;;;;;;5031361;28;20072;-64
2022/10/29 00:58:46;;;;;;;15.35;5.63;;;;;;;;;;5014701;28;20104;-64
2022/10/29 01:01:13;;;;;;;17.20;5.40;;;;;;;;;;5015881;28;20096;-64
2022/10/29 01:03:40;;;;;;;13.57;6.50;;;;;;;;;;5024233;28;20049;-65
2022/10/29 01:06:07;;;;;;;12.10;5.07;;;;;;;;;;5035316;28;20049;-65
2022/10/29 01:08:33;;;;;;;12.77;5.72;;;;;;;;;;5050454;28;20053;-64
2022/10/29 01:11:21;;;;;;;9.10;4.80;;;;;;;;;;5035450;28;20050;-64
2022/10/29 01:14:01;;;;;;;15.82;5.15;;;;;;;;;;5035250;28;20137;-64
2022/10/29 01:16:30;;;;;;;10.82;4.72;;;;;;;;;;5050153;28;20140;-64
2022/10/29 01:19:10;;;;;;;7.38;4.38;;;;;;;;;;5050053;28;20140;-64
2022/10/29 01:21:41;;;;;;;12.85;5.10;;;;;;;;;;5050596;28;20046;-64
2022/10/29 01:24:26;;;;;;;8.90;5.38;;;;;;;;;;5034159;28;20059;-64
2022/10/29 01:27:14;;;;;;;14.98;5.50;;;;;;;;;;5050481;28;20128;-64
2022/10/29 01:29:55;;;;;;;11.32;5.07;;;;;;;;;;5034665;28;20045;-64
2022/10/29 01:32:40;;;;;;;9.73;4.97;;;;;;;;;;5050687;28;20459;-64
2022/10/29 01:35:12;;;;;;;22.77;5.25;;;;;;;;;;5018411;28;20049;-64
2022/10/29 01:38:03;;;;;;;10.00;5.00;;;;;;;;;;5032555;28;20087;-64
2022/10/29 01:40:33;;;;;;;10.23;5.30;;;;;;;;;;5015104;28;20064;-64
2022/10/29 01:43:07;;;;;;;12.25;5.13;;;;;;;;;;5031796;28;20104;-64
2022/10/29 01:45:59;;;;;;;9.60;5.05;;;;;;;;;;5050094;28;20461;-64
2022/10/29 01:48:29;;;;;;;12.80;4.60;;;;;;;;;;5028198;28;20057;-64
2022/10/29 01:51:01;;;;;;;14.15;5.18;;;;;;;;;;5033559;28;20053;-64
2022/10/29 01:53:28;;;;;;;14.25;5.50;;;;;;;;;;5034984;28;20085;-64
2022/10/29 01:55:54;;;;;;;14.25;4.85;;;;;;;;;;5013531;28;20076;-64
2022/10/29 01:58:21;;;;;;;9.43;4.72;;;;;;;;;;5029220;28;20479;-64
2022/10/29 02:00:55;;;;;;;10.95;4.57;;;;;;;;;;5029443;28;20050;-64
2022/10/29 02:04:00;;;;;;;11.60;5.10;;;;;;;;;;5043328;28;20479;-64
2022/10/29 02:07:12;;;;;;;9.27;4.25;;;;;;;;;;5018409;28;20084;-64
2022/10/29 02:09:48;;;;;;;11.60;4.85;;;;;;;;;;5032688;28;20128;-64
2022/10/29 02:12:21;;;;;;;10.20;5.22;;;;;;;;;;5049381;28;20124;-64
2022/10/29 02:15:00;;;;;;;10.18;4.97;;;;;;;;;;5034365;28;20500;-65
2022/10/29 02:17:27;;;;;;;8.95;5.13;;;;;;;;;;5033252;28;20489;-64
2022/10/29 02:19:53;;;;;;;9.45;4.68;;;;;;;;;;5032239;28;20045;-64
2022/10/29 02:22:20;;;;;;;11.38;5.07;;;;;;;;;;5029258;28;20081;-64
2022/10/29 02:24:46;;;;;;;11.60;4.85;;;;;;;;;;5023353;28;20100;-64
2022/10/29 02:27:13;;;;;;;10.30;5.28;;;;;;;;;;5013472;28;20046;-65
2022/10/29 02:29:39;;;;;;;12.77;5.25;;;;;;;;;;5013326;28;20469;-65
2022/10/29 02:32:06;;;;;;;11.88;5.28;;;;;;;;;;5013799;28;20455;-64
2022/10/29 02:34:33;;;;;;;9.48;4.88;;;;;;;;;;5033578;28;20050;-65
2022/10/29 02:36:59;;;;;;;12.13;4.50;;;;;;;;;;5033246;28;20041;-64
2022/10/29 02:39:26;;;;;;;8.75;4.40;;;;;;;;;;5032614;28;20096;-65
2022/10/29 02:41:53;;;;;;;7.43;4.93;;;;;;;;;;5033075;28;20068;-65
2022/10/29 02:44:19;;;;;;;12.43;5.93;;;;;;;;;;5033326;28;20428;-65
2022/10/29 02:46:46;;;;;;;9.85;5.25;;;;;;;;;;5033408;28;20073;-65
2022/10/29 02:49:13;;;;;;;9.63;5.25;;;;;;;;;;5032506;28;20191;-65
2022/10/29 02:51:39;;;;;;;13.45;5.45;;;;;;;;;;5033036;28;20467;-65
2022/10/29 02:54:06;;;;;;;8.85;4.43;;;;;;;;;;5032950;28;20080;-65
2022/10/29 02:56:32;;;;;;;9.55;5.07;;;;;;;;;;5032969;28;20057;-64
2022/10/29 02:58:59;;;;;;;11.88;5.20;;;;;;;;;;5032292;28;20489;-64
2022/10/29 03:01:26;;;;;;;13.95;5.22;;;;;;;;;;5032892;28;20121;-65
2022/10/29 03:03:52;;;;;;;11.68;4.85;;;;;;;;;;5018477;28;20057;-65
2022/10/29 03:06:19;;;;;;;11.60;4.57;;;;;;;;;;5013221;28;20081;-64
2022/10/29 03:08:46;;;;;;;10.32;4.78;;;;;;;;;;5027395;28;20464;-65
2022/10/29 03:11:13;;;;;;;16.20;5.60;;;;;;;;;;5012589;28;20567;-65
2022/10/29 03:13:39;;;;;;;12.43;5.15;;;;;;;;;;5025322;28;20049;-64
2022/10/29 03:16:06;;;;;;;8.70;4.90;;;;;;;;;;5032605;28;20107;-64
2022/10/29 03:18:33;;;;;;;8.43;4.93;;;;;;;;;;5031820;28;20077;-64
2022/10/29 03:20:59;;;;;;;13.27;4.18;;;;;;;;;;5032569;28;20133;-65
2022/10/29 03:23:26;;;;;;;11.32;4.25;;;;;;;;;;5032315;28;20049;-64
2022/10/29 03:25:53;;;;;;;15.25;4.75;;;;;;;;;;5032788;28;20132;-64
2022/10/29 03:28:22;;;;;;;10.30;4.47;;;;;;;;;;5030650;28;20045;-65
2022/10/29 03:30:49;;;;;;;9.63;4.63;;;;;;;;;;5032395;28;20080;-64
2022/10/29 03:33:15;;;;;;;10.70;4.50;;;;;;;;;;5032386;28;20083;-64
2022/10/29 03:35:42;;;;;;;10.05;4.40;;;;;;;;;;5031318;28;20128;-65
2022/10/29 03:38:09;;;;;;;10.23;4.38;;;;;;;;;;5031585;28;20580;-65
2022/10/29 03:40:35;;;;;;;8.93;4.07;;;;;;;;;;5032281;28;20060;-65
2022/10/29 03:43:02;;;;;;;13.65;5.68;;;;;;;;;;5025367;28;20087;-65
2022/10/29 03:45:28;;;;;;;13.43;4.82;;;;;;;;;;5012499;28;20473;-65
2022/10/29 03:47:56;;;;;;;10.65;4.20;;;;;;;;;;5011897;28;20092;-65
2022/10/29 03:50:23;;;;;;;10.75;3.70;;;;;;;;;;5012240;28;20108;-65
2022/10/29 03:52:50;;;;;;;13.75;5.10;;;;;;;;;;5017038;28;20080;-65
2022/10/29 03:55:16;;;;;;;7.32;3.72;;;;;;;;;;5031942;28;20089;-64
2022/10/29 03:57:43;;;;;;;11.63;4.57;;;;;;;;;;5032040;28;20133;-65
2022/10/29 04:00:10;;;;;;;9.30;4.00;;;;;;;;;;5031840;28;20492;-64
2022/10/29 04:02:36;;;;;;;9.85;3.80;;;;;;;;;;5031401;28;20046;-65
2022/10/29 04:05:03;;;;;;;9.60;4.50;;;;;;;;;;5031880;28;20045;-65
2022/10/29 04:07:30;;;;;;;12.05;4.65;;;;;;;;;;5032044;28;20053;-65
2022/10/29 04:09:56;;;;;;;8.73;3.85;;;;;;;;;;5031281;28;20103;-65
2022/10/29 04:12:23;;;;;;;8.80;4.22;;;;;;;;;;5031252;28;20103;-65
2022/10/29 04:14:50;;;;;;;8.93;4.30;;;;;;;;;;5012084;28;20092;-65
2022/10/29 04:17:21;;;;;;;19.17;4.78;;;;;;;;;;5012263;28;20112;-64
2022/10/29 04:19:48;;;;;;;9.35;4.07;;;;;;;;;;5011647;28;20408;-65
2022/10/29 04:22:14;;;;;;;10.95;4.13;;;;;;;;;;5012251;28;20484;-65
2022/10/29 04:25:01;;;;;;;10.80;4.47;;;;;;;;;;5015298;28;20072;-65
2022/10/29 04:27:47;;;;;;;10.05;4.30;;;;;;;;;;5015874;28;20052;-65
2022/10/29 04:30:34;;;;;;;10.25;4.88;;;;;;;;;;5015774;28;20509;-64
2022/10/29 04:33:01;;;;;;;11.45;4.10;;;;;;;;;;5015971;28;20046;-65
2022/10/29 04:35:28;;;;;;;8.27;3.88;;;;;;;;;;5016094;28;20477;-65
2022/10/29 04:37:54;;;;;;;11.02;4.65;;;;;;;;;;5015341;28;20087;-65
2022/10/29 04:40:22;;;;;;;11.02;4.60;;;;;;;;;;5015661;28;20559;-65
2022/10/29 04:42:49;;;;;;;8.25;4.60;;;;;;;;;;5015918;28;20124;-65
2022/10/29 04:45:16;;;;;;;10.32;4.22;;;;;;;;;;5015972;28;20104;-65
2022/10/29 04:47:43;;;;;;;10.10;4.30;;;;;;;;;;5015775;28;20101;-64
2022/10/29 04:50:09;;;;;;;10.88;4.45;;;;;;;;;;5015280;28;20050;-65
2022/10/29 04:52:36;;;;;;;14.23;4.60;;;;;;;;;;5015319;28;20089;-65
2022/10/29 04:55:03;;;;;;;11.35;5.10;;;;;;;;;;5015487;28;20058;-64
2022/10/29 04:57:29;;;;;;;5.32;3.88;;;;;;;;;;5015591;28;20137;-64
2022/10/29 04:59:56;;;;;;;10.55;4.93;;;;;;;;;;5022069;28;20497;-65
2022/10/29 05:02:23;;;;;;;9.48;4.45;;;;;;;;;;5015620;28;20054;-65
2022/10/29 05:04:49;;;;;;;12.77;5.35;;;;;;;;;;5015442;28;20089;-65
2022/10/29 05:07:16;;;;;;;7.15;4.20;;;;;;;;;;5015428;28;20055;-64
2022/10/29 05:09:42;;;;;;;9.50;4.57;;;;;;;;;;5014941;28;20076;-64
2022/10/29 05:12:09;;;;;;;11.15;5.03;;;;;;;;;;5030846;28;20050;-64
2022/10/29 05:14:36;;;;;;;12.20;5.18;;;;;;;;;;5035197;28;20107;-65
2022/10/29 05:17:02;;;;;;;10.85;5.38;;;;;;;;;;5035060;28;20050;-65
2022/10/29 05:19:29;;;;;;;12.80;5.28;;;;;;;;;;5034187;28;20045;-64
2022/10/29 05:21:55;;;;;;;14.93;4.78;;;;;;;;;;5034354;28;20050;-65
2022/10/29 05:24:22;;;;;;;9.55;5.10;;;;;;;;;;5034838;28;20050;-65
2022/10/29 05:26:49;;;;;;;11.00;4.68;;;;;;;;;;5035088;28;20088;-65
2022/10/29 05:29:15;;;;;;;10.50;4.47;;;;;;;;;;5034313;28;20472;-65
2022/10/29 05:31:42;;;;;;;11.73;4.60;;;;;;;;;;5034208;28;20119;-65
2022/10/29 05:34:08;;;;;;;9.02;4.78;;;;;;;;;;5034438;28;20088;-65
2022/10/29 05:36:35;;;;;;;11.65;4.90;;;;;;;;;;5034396;28;20416;-65
2022/10/29 05:39:02;;;;;;;10.48;4.63;;;;;;;;;;5034219;28;20053;-65
2022/10/29 05:41:28;;;;;;;13.25;5.22;;;;;;;;;;5024183;28;20092;-65
2022/10/29 05:43:55;;;;;;;11.82;4.43;;;;;;;;;;5015298;28;20464;-66
2022/10/29 05:46:21;;;;;;;10.90;5.07;;;;;;;;;;5014634;28;20141;-66
2022/10/29 05:48:48;;;;;;;12.98;5.15;;;;;;;;;;5013903;28;20096;-67
2022/10/29 05:51:14;;;;;;;11.77;5.00;;;;;;;;;;5014163;28;20042;-65
2022/10/29 05:53:41;;;;;;;10.75;4.72;;;;;;;;;;5014406;28;20100;-66
2022/10/29 05:56:08;;;;;;;14.55;5.57;;;;;;;;;;5014457;28;20060;-66
2022/10/29 05:58:34;;;;;;;9.55;4.82;;;;;;;;;;5013773;28;20129;-64
2022/10/29 06:01:05;;;;;;;10.65;5.13;;;;;;;;;;5020835;28;20133;-67
2022/10/29 06:03:31;;;;;;;13.00;5.45;;;;;;;;;;5034158;28;20083;-66
2022/10/29 06:05:58;;;;;;;10.43;4.95;;;;;;;;;;5033921;28;20049;-65
2022/10/29 06:08:25;;;;;;;11.38;5.88;;;;;;;;;;5033610;28;20049;-65
2022/10/29 06:10:52;;;;;;;10.23;5.32;;;;;;;;;;5033554;28;20713;-65
2022/10/29 06:13:20;;;;;;;10.43;5.15;;;;;;;;;;5033867;28;20575;-64
2022/10/29 06:15:49;;;;;;;10.80;5.20;;;;;;;;;;5033856;28;20112;-64
2022/10/29 06:18:16;;;;;;;14.35;5.78;;;;;;;;;;5032060;28;20128;-65
2022/10/29 06:20:42;;;;;;;17.20;6.30;;;;;;;;;;5029489;28;20517;-66
2022/10/29 06:23:09;;;;;;;10.88;5.57;;;;;;;;;;5014095;28;20051;-65
2022/10/29 06:25:36;;;;;;;12.40;7.45;;;;;;;;;;5029037;28;20049;-65
2022/10/29 06:28:07;;;;;;;17.08;10.40;;;;;;;;;;5013508;28;20109;-66
2022/10/29 06:30:34;;;;;;;20.63;10.13;;;;;;;;;;5013574;28;20050;-64
2022/10/29 06:33:01;;;;;;;18.80;9.52;;;;;;;;;;5029868;28;20547;-65
2022/10/29 06:35:28;;;;;;;15.90;9.10;;;;;;;;;;5033238;28;20049;-65
2022/10/29 06:37:55;;;;;;;18.92;8.52;;;;;;;;;;5032857;28;20046;-66
2022/10/29 06:40:22;;;;;;;17.17;9.32;;;;;;;;;;5032421;28;20505;-66
2022/10/29 06:42:49;;;;;;;17.65;9.35;;;;;;;;;;5013620;28;20111;-66
2022/10/29 06:45:15;;;;;;;26.83;9.45;;;;;;;;;;5013375;28;20137;-65
2022/10/29 06:47:44;;;;;;;25.85;9.13;;;;;;;;;;5012669;28;20053;-65
2022/10/29 06:50:12;;;;;;;21.00;7.60;;;;;;;;;;5012995;28;20440;-66
2022/10/29 06:52:38;;;;;;;14.30;6.10;;;;;;;;;;5023761;28;20464;-65
2022/10/29 06:55:05;;;;;;;13.50;5.50;;;;;;;;;;5033136;28;20057;-64
2022/10/29 06:57:32;;;;;;;13.25;5.78;;;;;;;;;;5032992;28;20053;-66
2022/10/29 06:59:59;;;;;;;12.60;5.57;;;;;;;;;;5032000;28;20562;-65
2022/10/29 07:02:33;;;;;;;9.93;5.40;;;;;;;;;;5015028;28;20437;-66
2022/10/29 07:05:00;;;;;;;15.07;6.07;;;;;;;;;;5012939;28;20053;-65
2022/10/29 07:07:27;;;;;;;11.18;4.95;;;;;;;;;;5013045;28;20480;-66
2022/10/29 07:09:54;;;;;;;12.48;5.50;;;;;;;;;;5012186;28;20421;-65
2022/10/29 07:12:20;;;;;;;14.18;6.05;;;;;;;;;;5028554;28;20133;-64
2022/10/29 07:14:47;;;;;;;12.00;5.95;;;;;;;;;;5032389;28;20426;-64
2022/10/29 07:17:13;;;;;;;10.07;5.28;;;;;;;;;;5032786;28;20128;-65
2022/10/29 07:19:40;;;;;;;15.90;6.10;;;;;;;;;;5030131;28;20147;-65
2022/10/29 07:22:06;;;;;;;11.68;5.50;;;;;;;;;;5012839;28;20082;-65
2022/10/29 07:24:33;;;;;;;11.20;4.93;;;;;;;;;;5012742;28;20054;-64
2022/10/29 07:27:00;;;;;;;11.45;5.95;;;;;;;;;;5012662;28;20497;-65
2022/10/29 07:29:27;;;;;;;11.73;4.95;;;;;;;;;;5012179;28;20058;-64
2022/10/29 07:31:53;;;;;;;14.88;5.70;;;;;;;;;;5027552;28;20128;-65
2022/10/29 07:34:20;;;;;;;7.53;5.25;;;;;;;;;;5032180;28;20453;-65
2022/10/29 07:36:47;;;;;;;11.00;5.60;;;;;;;;;;5032216;28;20096;-63
2022/10/29 07:39:13;;;;;;;15.27;5.43;;;;;;;;;;5031397;28;20131;-65
2022/10/29 07:41:40;;;;;;;14.88;5.55;;;;;;;;;;5031167;28;20424;-65
2022/10/29 07:44:06;;;;;;;21.65;6.00;;;;;;;;;;5032287;28;20045;-65
2022/10/29 07:46:33;;;;;;;12.40;6.07;;;;;;;;;;5032015;28;20096;-62
2022/10/29 07:48:59;;;;;;;9.95;5.35;;;;;;;;;;5031263;28;20464;-65
2022/10/29 07:51:26;;;;;;;15.13;5.60;;;;;;;;;;5019451;28;20096;-64
2022/10/29 07:53:53;;;;;;;12.40;5.07;;;;;;;;;;5014517;28;20057;-65
2022/10/29 07:56:19;;;;;;;10.00;5.15;;;;;;;;;;5023992;28;20085;-64
2022/10/29 07:58:46;;;;;;;14.15;5.25;;;;;;;;;;5030565;28;20132;-66
2022/10/29 08:01:13;;;;;;;14.25;5.10;;;;;;;;;;5031739;28;20587;-65
2022/10/29 08:03:39;;;;;;;8.95;5.07;;;;;;;;;;5031985;28;20085;-63
2022/10/29 08:06:06;;;;;;;10.25;4.53;;;;;;;;;;5031979;28;20144;-65
2022/10/29 08:08:33;;;;;;;13.43;6.22;;;;;;;;;;5031251;28;20045;-65
2022/10/29 08:11:01;;;;;;;8.48;4.55;;;;;;;;;;5020349;28;20046;-64
2022/10/29 08:13:27;;;;;;;7.72;4.57;;;;;;;;;;5012401;28;20140;-65
2022/10/29 08:15:54;;;;;;;9.20;4.90;;;;;;;;;;5027368;28;20053;-65
2022/10/29 08:18:21;;;;;;;8.07;5.15;;;;;;;;;;5011679;28;20089;-64
2022/10/29 08:20:47;;;;;;;13.63;4.55;;;;;;;;;;5011922;28;20480;-66
2022/10/29 08:23:14;;;;;;;10.68;4.28;;;;;;;;;;5012097;28;20085;-64
2022/10/29 08:25:41;;;;;;;10.93;4.30;;;;;;;;;;5012051;28;20077;-64
2022/10/29 08:28:10;;;;;;;13.60;4.88;;;;;;;;;;5011391;28;20058;-64
2022/10/29 08:30:37;;;;;;;9.35;4.13;;;;;;;;;;5012277;28;20046;-65
2022/10/29 08:33:04;;;;;;;10.68;4.88;;;;;;;;;;5018821;28;20100;-65
2022/10/29 08:35:31;;;;;;;11.13;5.80;;;;;;;;;;5011863;28;20050;-64
2022/10/29 08:37:58;;;;;;;10.57;4.35;;;;;;;;;;5011225;28;20081;-64
2022/10/29 08:40:31;;;;;;;8.60;4.10;;;;;;;;;;5011786;28;20077;-65
2022/10/29 08:43:20;;;;;;;12.32;4.45;;;;;;;;;;5012081;28;20053;-65
2022/10/29 08:45:48;;;;;;;8.50;4.18;;;;;;;;;;5025688;28;20077;-65
2022/10/29 08:48:18;;;;;;;9.95;3.70;;;;;;;;;;5011173;28;20054;-63
2022/10/29 08:50:47;;;;;;;10.43;3.95;;;;;;;;;;5011917;28;20054;-65
2022/10/29 08:53:22;;;;;;;14.35;4.55;;;;;;;;;;5010507;28;20053;-65
2022/10/29 08:55:52;;;;;;;11.98;4.30;;;;;;;;;;5035946;28;20049;-65
2022/10/29 08:58:40;;;;;;;22.25;4.78;;;;;;;;;;5046157;28;20119;-65
2022/10/29 09:01:09;;;;;;;16.05;5.53;;;;;;;;;;5020640;28;20058;-64
2022/10/29 09:03:36;;;;;;;29.33;5.75;;;;;;;;;;5026561;28;20527;-66
2022/10/29 09:06:09;;;;;;;37.58;6.68;;;;;;;;;;5026803;28;20085;-64
2022/10/29 09:08:54;;;;;;;23.73;5.70;;;;;;;;;;5011092;28;20085;-64
2022/10/29 09:11:27;;;;;;;14.15;4.93;;;;;;;;;;5027004;28;20482;-65
2022/10/29 09:14:15;;;;;;;14.82;4.68;;;;;;;;;;5050253;28;20562;-65
2022/10/29 09:16:56;;;;;;;24.35;6.43;;;;;;;;;;5035418;28;20116;-64
2022/10/29 09:19:31;;;;;;;19.70;6.78;;;;;;;;;;5032964;28;20045;-65
2022/10/29 09:22:23;;;;;;;15.68;5.30;;;;;;;;;;5033458;28;20133;-65
2022/10/29 09:25:11;;;;;;;15.23;5.28;;;;;;;;;;5034753;28;20096;-64
2022/10/29 09:28:09;;;;;;;10.02;4.65;;;;;;;;;;5024629;28;20077;-65
2022/10/29 09:30:44;;;;;;;9.50;4.00;;;;;;;;;;5029863;28;20473;-65
2022/10/29 09:33:14;;;;;;;16.67;4.88;;;;;;;;;;5029490;28;20450;-65
2022/10/29 09:35:52;;;;;;;14.95;4.97;;;;;;;;;;5017332;28;20081;-64
2022/10/29 09:38:28;;;;;;;9.55;4.53;;;;;;;;;;5027792;28;20521;-63
2022/10/29 09:40:59;;;;;;;10.88;5.03;;;;;;;;;;5013310;28;20050;-64
2022/10/29 09:43:38;;;;;;;10.00;4.88;;;;;;;;;;5013586;28;20049;-65
2022/10/29 09:46:36;;;;;;;7.50;3.90;;;;;;;;;;5024868;28;20431;-65
2022/10/29 09:49:35;;;;;;;8.65;4.53;;;;;;;;;;5016245;28;20049;-64
2022/10/29 09:52:10;;;;;;;10.02;3.63;;;;;;;;;;5025831;28;20134;-65
2022/10/29 09:54:36;;;;;;;8.80;3.90;;;;;;;;;;5049543;28;20053;-65
2022/10/29 09:57:03;;;;;;;13.15;3.70;;;;;;;;;;5015220;28;20053;-65
2022/10/29 09:59:36;;;;;;;10.90;4.07;;;;;;;;;;5013763;28;20060;-65
2022/10/29 10:02:02;;;;;;;;;;;;;;;;;;5013744;28;20049;-65
2022/10/29 10:04:32;;;;;;;9.40;4.18;;;;;;;;;;5013192;28;19921;-64
2022/10/29 10:07:04;;;;;;;13.40;4.50;;;;;;;;;;5014753;28;20049;-64
2022/10/29 10:09:54;;;;;;;11.38;4.28;;;;;;;;;;5013451;28;20168;-65
2022/10/29 10:12:35;;;;;;;10.38;3.83;;;;;;;;;;5014234;28;20097;-65
2022/10/29 10:15:27;;;;;;;9.93;4.57;;;;;;;;;;5013882;28;20089;-65
2022/10/29 10:17:55;;;;;;;13.63;4.93;;;;;;;;;;5013538;28;20046;-64
2022/10/29 10:20:44;;;;;;;16.27;4.70;;;;;;;;;;5013153;28;20046;-65
2022/10/29 10:23:23;;;;;;;12.63;4.72;;;;;;;;;;5013628;28;20054;-64
2022/10/29 10:25:51;;;;;;;16.17;6.07;;;;;;;;;;5014188;28;20509;-64
2022/10/29 10:28:23;;;;;;;13.82;6.10;;;;;;;;;;5016337;28;20050;-64
2022/10/29 10:31:11;;;;;;;12.45;5.43;;;;;;;;;;5019869;28;20050;-64
2022/10/29 10:33:50;;;;;;;12.77;5.65;;;;;;;;;;5013893;28;20104;-64
2022/10/29 10:36:19;;;;;;;13.55;5.72;;;;;;;;;;5017683;28;20069;-65
2022/10/29 10:38:48;;;;;;;12.70;5.00;;;;;;;;;;5027782;28;20447;-65
2022/10/29 10:41:21;;;;;;;8.95;3.95;;;;;;;;;;5013737;28;20100;-64
2022/10/29 10:43:48;;;;;;;22.00;6.00;;;;;;;;;;5012686;28;20084;-64
2022/10/29 10:46:23;;;;;;;13.52;4.03;;;;;;;;;;5013551;28;20057;-64
2022/10/29 10:49:02;;;;;;;10.88;3.35;;;;;;;;;;5012934;28;20094;-64
2022/10/29 10:51:30;;;;;;;8.00;2.60;;;;;;;;;;5012260;28;20513;-65
2022/10/29 10:53:58;;;;;;;7.13;2.95;;;;;;;;;;5012522;28;20054;-65
2022/10/29 10:56:25;;;;;;;10.00;3.05;;;;;;;;;;5012099;28;20088;-65
2022/10/29 10:59:01;;;;;;;9.18;3.03;;;;;;;;;;5012681;28;20073;-64
2022/10/29 11:01:35;;;;;;;6.57;3.08;;;;;;;;;;5028144;28;20050;-65
2022/10/29 11:04:35;;;;;;;6.82;3.40;;;;;;;;;;5012043;28;20053;-65
2022/10/29 11:07:04;;;;;;;7.72;3.58;;;;;;;;;;5037593;28;20080;-64
2022/10/29 11:09:33;;;;;;;11.05;4.10;;;;;;;;;;5047369;28;20088;-65
2022/10/29 11:12:04;;;;;;;10.10;3.85;;;;;;;;;;5031492;28;20107;-63
2022/10/29 11:14:35;;;;;;;8.10;3.78;;;;;;;;;;5047628;28;20053;-65
2022/10/29 11:17:03;;;;;;;8.40;3.78;;;;;;;;;;5031604;28;20056;-64
2022/10/29 11:19:34;;;;;;;13.93;3.72;;;;;;;;;;5047118;28;20518;-64
2022/10/29 11:22:24;;;;;;;11.00;3.50;;;;;;;;;;5047430;28;20099;-65
2022/10/29 11:25:04;;;;;;;9.70;3.00;;;;;;;;;;5032791;28;20107;-65
2022/10/29 11:27:40;;;;;;;9.13;3.28;;;;;;;;;;5047287;28;20053;-64
2022/10/29 11:30:15;;;;;;;8.18;3.10;;;;;;;;;;5030640;28;20069;-64
2022/10/29 11:32:58;;;;;;;7.47;3.10;;;;;;;;;;5047161;28;20112;-64
2022/10/29 11:35:50;;;;;;;10.43;3.55;;;;;;;;;;5030531;28;20103;-63
2022/10/29 11:38:19;;;;;;;11.18;3.03;;;;;;;;;;5030873;28;20084;-65
2022/10/29 11:41:24;;;;;;;9.15;2.92;;;;;;;;;;5032007;28;20099;-64
2022/10/29 11:43:51;;;;;;;10.45;3.60;;;;;;;;;;5010657;28;20058;-64
2022/10/29 11:46:27;;;;;;;14.15;3.35;;;;;;;;;;5019447;28;20461;-62
2022/10/29 11:48:54;;;;;;;6.55;3.00;;;;;;;;;;5026723;28;20050;-63
2022/10/29 11:51:51;;;;;;;10.52;2.72;;;;;;;;;;5012350;28;20479;-64
2022/10/29 11:55:12;;;;;;;12.10;2.63;;;;;;;;;;5001704;28;20092;-63
2022/10/29 11:57:40;;;;;;;7.82;3.15;;;;;;;;;;5009872;28;20104;-63
2022/10/29 12:00:56;;;;;;;7.72;3.10;;;;;;;;;;5010257;28;20046;-63
2022/10/29 12:03:27;;;;;;;9.38;2.83;;;;;;;;;;5013176;28;20049;-63
2022/10/29 12:06:18;;;;;;;12.88;3.92;;;;;;;;;;5043843;28;20050;-64
2022/10/29 12:08:52;;;;;;;8.82;3.03;;;;;;;;;;5031230;28;20100;-65
2022/10/29 12:11:36;;;;;;;8.98;2.80;;;;;;;;;;5030392;28;20049;-63
2022/10/29 12:14:16;;;;;;;8.55;3.33;;;;;;;;;;5044385;28;20535;-64
2022/10/29 12:16:56;;;;;;;7.03;3.20;;;;;;;;;;5031744;28;20072;-64
2022/10/29 12:19:47;;;;;;;8.52;3.08;;;;;;;;;;5046392;28;20072;-65
2022/10/29 12:22:18;;;;;;;8.52;3.17;;;;;;;;;;5007966;28;20179;-68
2022/10/29 12:24:52;;;;;;;9.85;3.50;;;;;;;;;;5020820;28;20059;-70
2022/10/29 12:27:49;;;;;;;11.15;3.72;;;;;;;;;;5018439;28;20053;-77
2022/10/29 12:30:17;;;;;;;13.95;4.80;;;;;;;;;;5016267;28;20077;-74
2022/10/29 12:33:02;;;;;;;12.40;5.38;;;;;;;;;;5020280;28;20419;-71
2022/10/29 12:35:37;;;;;;;19.58;9.68;;;;;;;;;;5016587;28;20054;-66
2022/10/29 12:38:07;;;;;;;20.35;11.27;;;;;;;;;;5017219;28;20054;-74
2022/10/29 12:40:36;;;;;;;7.78;3.85;;;;;;;;;;5016196;28;20053;-72
2022/10/29 12:43:09;;;;;;;11.32;5.45;;;;;;;;;;5003901;28;20050;-74
2022/10/29 12:45:51;;;;;;;13.38;6.35;;;;;;;;;;5021249;28;20137;-72
2022/10/29 12:49:01;;;;;;;13.23;5.80;;;;;;;;;;5022958;28;20111;-71
2022/10/29 12:51:55;;;;;;;9.10;4.50;;;;;;;;;;5020952;28;20123;-76
2022/10/29 12:54:29;;;;;;;12.98;5.60;;;;;;;;;;5019179;28;20683;-73
2022/10/29 12:57:28;;;;;;;13.02;6.07;;;;;;;;;;5022512;28;20501;-71
2022/10/29 12:59:55;;;;;;;8.43;3.28;;;;;;;;;;5030431;28;20050;-74
2022/10/29 13:02:28;;;;;;;9.60;2.90;;;;;;;;;;5022484;28;20563;-73
2022/10/29 13:05:04;;;;;;;10.40;3.20;;;;;;;;;;5006555;28;20096;-74
2022/10/29 13:07:32;;;;;;;6.60;3.05;;;;;;;;;;5022622;28;20045;-72
2022/10/29 13:10:27;;;;;;;10.10;3.10;;;;;;;;;;5005538;28;20049;-66
2022/10/29 13:12:56;;;;;;;6.75;3.60;;;;;;;;;;5017877;28;20046;-69
2022/10/29 13:15:35;;;;;;;9.80;3.22;;;;;;;;;;5024556;28;20528;-71
2022/10/29 13:18:11;;;;;;;7.95;2.90;;;;;;;;;;5024362;28;20053;-74
2022/10/29 13:20:40;;;;;;;8.52;3.70;;;;;;;;;;5024594;28;20079;-73
2022/10/29 13:23:30;;;;;;;14.77;4.03;;;;;;;;;;5004683;28;20104;-76
2022/10/29 13:26:00;;;;;;;10.52;3.92;;;;;;;;;;5018277;28;20049;-71
2022/10/29 13:28:27;;;;;;;9.00;3.75;;;;;;;;;;5010724;28;20053;-66
2022/10/29 13:31:02;;;;;;;6.50;3.83;;;;;;;;;;5021324;28;20077;-70
2022/10/29 13:33:30;;;;;;;10.02;3.35;;;;;;;;;;5023159;28;20057;-72
2022/10/29 13:35:58;;;;;;;11.32;3.95;;;;;;;;;;5020398;28;20049;-71
2022/10/29 13:38:49;;;;;;;13.75;3.65;;;;;;;;;;5021158;28;20075;-73
2022/10/29 13:41:40;;;;;;;11.07;3.55;;;;;;;;;;5017067;28;20045;-72
2022/10/29 13:44:28;;;;;;;8.18;3.60;;;;;;;;;;5022735;28;20046;-74
2022/10/29 13:46:59;;;;;;;10.65;3.45;;;;;;;;;;5011456;28;20054;-71
2022/10/29 13:49:40;;;;;;;10.02;3.03;;;;;;;;;;5002204;28;20053;-73
2022/10/29 13:52:07;;;;;;;7.00;2.92;;;;;;;;;;4989311;28;20484;-71
2022/10/29 13:54:36;;;;;;;11.20;3.65;;;;;;;;;;5024007;28;20066;-70
2022/10/29 13:57:15;;;;;;;13.80;3.95;;;;;;;;;;5018404;28;20497;-73
2022/10/29 13:59:58;;;;;;;9.60;3.38;;;;;;;;;;5018313;28;20429;-73
2022/10/29 14:02:31;;;;;;;11.70;3.93;;;;;;;;;;5021498;28;20045;-70
2022/10/29 14:05:13;;;;;;;5.82;3.20;;;;;;;;;;5027491;28;20084;-72
2022/10/29 14:11:35;;;;;;;10.80;3.15;;;;;;;;;;5019629;28;20040;-71
2022/10/29 14:14:05;;;;;;;11.60;4.10;;;;;;;;;;5020295;28;20099;-74
2022/10/29 14:16:32;;;;;;;8.55;3.33;;;;;;;;;;4993529;28;20112;-73
2022/10/29 14:19:19;;;;;;;6.22;3.90;;;;;;;;;;5018960;28;20050;-72
2022/10/29 14:21:46;;;;;;;10.32;3.65;;;;;;;;;;5023166;28;20095;-73
2022/10/29 14:24:15;;;;;;;9.18;3.20;;;;;;;;;;5016833;28;20423;-69
2022/10/29 14:26:43;;;;;;;8.13;3.35;;;;;;;;;;5023195;28;20582;-73
2022/10/29 14:29:16;;;;;;;8.65;3.60;;;;;;;;;;5002198;28;20428;-72
2022/10/29 14:31:44;;;;;;;12.18;3.65;;;;;;;;;;5020382;28;20084;-70
2022/10/29 14:34:25;;;;;;;14.05;3.60;;;;;;;;;;5021365;28;20532;-70
2022/10/29 14:36:55;;;;;;;9.63;3.30;;;;;;;;;;5015817;28;20046;-70
2022/10/29 14:39:27;;;;;;;10.10;3.67;;;;;;;;;;5018188;28;20045;-70
2022/10/29 14:42:15;;;;;;;11.52;4.00;;;;;;;;;;5019219;28;20057;-71
2022/10/29 14:44:46;;;;;;;6.53;3.00;;;;;;;;;;5010612;28;20049;-73
2022/10/29 14:47:26;;;;;;;12.15;3.63;;;;;;;;;;5006310;28;20049;-66
2022/10/29 14:50:01;;;;;;;9.57;4.00;;;;;;;;;;5018150;28;20048;-68
2022/10/29 14:52:38;;;;;;;9.73;4.18;;;;;;;;;;5027187;28;20060;-70
2022/10/29 14:55:19;;;;;;;8.35;3.97;;;;;;;;;;5017083;28;20119;-66
2022/10/29 14:57:48;;;;;;;12.40;4.53;;;;;;;;;;5017508;28;20493;-69
2022/10/29 15:00:23;;;;;;;13.70;3.70;;;;;;;;;;5018375;28;20049;-69
2022/10/29 15:03:19;;;;;;;11.50;4.30;;;;;;;;;;5034063;28;20053;-76
2022/10/29 15:05:46;;;;;;;10.38;4.55;;;;;;;;;;5008130;28;20140;-67
2022/10/29 15:08:18;;;;;;;9.93;3.97;;;;;;;;;;5018590;28;20149;-72